sensor_id;sensor_type;location;lat;lon;timestamp;P1;durP1;ratioP1;P2;durP2;ratioP2
46084;SDS011;31823;47.032;8.310;2022-09-30T00:01:36;10.48;;;4.78;;
46084;SDS011;31823;47.032;8.310;2022-09-30T00:04:06;7.97;;;4.63;;
46084;SDS011;31823;47.032;8.310;2022-09-30T00:06:40;7.78;;;4.40;;
46084;SDS011;31823;47.032;8.310;2022-09-30T00:09:06;7.70;;;4.43;;
46084;SDS011;31823;47.032;8.310;2022-09-30T00:11:33;7.20;;;4.30;;
46084;SDS011;31823;47.032;8.310;2022-09-30T00:14:00;8.13;;;3.97;;
46084;SDS011;31823;47.032;8.310;2022-09-30T00:16:27;5.97;;;3.58;;
46084;SDS011;31823;47.032;8.310;2022-09-30T00:18:55;7.25;;;3.65;;
46084;SDS011;31823;47.032;8.310;2022-09-30T00:21:22;6.32;;;3.67;;
46084;SDS011;31823;47.032;8.310;2022-09-30T00:23:48;5.00;;;3.17;;
46084;SDS011;31823;47.032;8.310;2022-09-30T00:26:15;6.25;;;3.20;;
46084;SDS011;31823;47.032;8.310;2022-09-30T00:28:43;6.75;;;3.90;;
46084;SDS011;31823;47.032;8.310;2022-09-30T00:31:11;8.23;;;4.07;;
46084;SDS011;31823;47.032;8.310;2022-09-30T00:33:39;7.95;;;4.00;;
46084;SDS011;31823;47.032;8.310;2022-09-30T00:36:05;8.45;;;3.85;;
46084;SDS011;31823;47.032;8.310;2022-09-30T00:38:31;7.82;;;4.22;;
46084;SDS011;31823;47.032;8.310;2022-09-30T00:40:57;7.25;;;4.88;;
46084;SDS011;31823;47.032;8.310;2022-09-30T00:48:48;15.63;;;5.30;;
46084;SDS011;31823;47.032;8.310;2022-09-30T00:51:18;10.35;;;5.25;;
46084;SDS011;31823;47.032;8.310;2022-09-30T00:53:51;16.23;;;6.20;;
46084;SDS011;31823;47.032;8.310;2022-09-30T00:56:24;12.90;;;6.32;;
46084;SDS011;31823;47.032;8.310;2022-09-30T00:59:07;13.35;;;7.72;;
46084;SDS011;31823;47.032;8.310;2022-09-30T01:01:39;10.70;;;7.05;;
46084;SDS011;31823;47.032;8.310;2022-09-30T01:04:09;13.10;;;6.38;;
46084;SDS011;31823;47.032;8.310;2022-09-30T01:06:38;11.50;;;6.55;;
46084;SDS011;31823;47.032;8.310;2022-09-30T01:09:05;9.43;;;5.68;;
46084;SDS011;31823;47.032;8.310;2022-09-30T01:11:31;10.00;;;5.50;;
46084;SDS011;31823;47.032;8.310;2022-09-30T01:13:59;9.52;;;5.20;;
46084;SDS011;31823;47.032;8.310;2022-09-30T01:24:38;7.03;;;4.13;;
46084;SDS011;31823;47.032;8.310;2022-09-30T01:35:50;4.60;;;3.00;;
46084;SDS011;31823;47.032;8.310;2022-09-30T01:38:26;4.28;;;2.72;;
46084;SDS011;31823;47.032;8.310;2022-09-30T01:43:52;5.95;;;2.97;;
46084;SDS011;31823;47.032;8.310;2022-09-30T01:46:35;5.22;;;2.70;;
46084;SDS011;31823;47.032;8.310;2022-09-30T01:51:45;6.97;;;2.90;;
46084;SDS011;31823;47.032;8.310;2022-09-30T01:57:43;8.63;;;2.88;;
46084;SDS011;31823;47.032;8.310;2022-09-30T02:00:22;4.97;;;2.72;;
46084;SDS011;31823;47.032;8.310;2022-09-30T02:02:58;3.90;;;2.92;;
46084;SDS011;31823;47.032;8.310;2022-09-30T02:05:26;5.15;;;3.13;;
46084;SDS011;31823;47.032;8.310;2022-09-30T02:07:54;5.18;;;2.90;;
46084;SDS011;31823;47.032;8.310;2022-09-30T02:10:28;6.13;;;3.50;;
46084;SDS011;31823;47.032;8.310;2022-09-30T02:13:00;6.78;;;2.72;;
46084;SDS011;31823;47.032;8.310;2022-09-30T02:15:34;10.57;;;3.28;;
46084;SDS011;31823;47.032;8.310;2022-09-30T02:18:06;6.93;;;3.38;;
46084;SDS011;31823;47.032;8.310;2022-09-30T02:20:51;7.97;;;3.97;;
46084;SDS011;31823;47.032;8.310;2022-09-30T02:23:22;6.20;;;4.20;;
46084;SDS011;31823;47.032;8.310;2022-09-30T02:26:00;7.82;;;4.95;;
46084;SDS011;31823;47.032;8.310;2022-09-30T02:28:31;8.80;;;4.90;;
46084;SDS011;31823;47.032;8.310;2022-09-30T02:31:00;9.75;;;5.53;;
46084;SDS011;31823;47.032;8.310;2022-09-30T02:33:49;9.68;;;4.95;;
46084;SDS011;31823;47.032;8.310;2022-09-30T02:42:25;12.05;;;5.60;;
46084;SDS011;31823;47.032;8.310;2022-09-30T02:44:53;9.20;;;5.78;;
46084;SDS011;31823;47.032;8.310;2022-09-30T02:50:30;13.48;;;6.07;;
46084;SDS011;31823;47.032;8.310;2022-09-30T02:58:25;9.27;;;5.50;;
46084;SDS011;31823;47.032;8.310;2022-09-30T03:00:51;10.27;;;5.30;;
46084;SDS011;31823;47.032;8.310;2022-09-30T03:03:19;9.55;;;5.13;;
46084;SDS011;31823;47.032;8.310;2022-09-30T03:05:49;9.48;;;5.30;;
46084;SDS011;31823;47.032;8.310;2022-09-30T03:08:15;6.43;;;4.18;;
46084;SDS011;31823;47.032;8.310;2022-09-30T03:10:41;7.30;;;4.47;;
46084;SDS011;31823;47.032;8.310;2022-09-30T03:42:35;7.57;;;4.80;;
46084;SDS011;31823;47.032;8.310;2022-09-30T03:45:12;10.90;;;5.65;;
46084;SDS011;31823;47.032;8.310;2022-09-30T03:47:41;11.57;;;5.70;;
46084;SDS011;31823;47.032;8.310;2022-09-30T03:50:11;11.55;;;5.72;;
46084;SDS011;31823;47.032;8.310;2022-09-30T03:52:40;11.15;;;6.53;;
46084;SDS011;31823;47.032;8.310;2022-09-30T03:55:07;16.63;;;7.65;;
46084;SDS011;31823;47.032;8.310;2022-09-30T03:57:33;14.73;;;8.05;;
46084;SDS011;31823;47.032;8.310;2022-09-30T03:59:59;15.18;;;8.80;;
46084;SDS011;31823;47.032;8.310;2022-09-30T04:02:25;17.90;;;9.32;;
46084;SDS011;31823;47.032;8.310;2022-09-30T04:04:51;15.65;;;8.10;;
46084;SDS011;31823;47.032;8.310;2022-09-30T04:07:17;17.15;;;9.02;;
46084;SDS011;31823;47.032;8.310;2022-09-30T04:09:43;18.85;;;9.70;;
46084;SDS011;31823;47.032;8.310;2022-09-30T04:12:09;20.30;;;9.43;;
46084;SDS011;31823;47.032;8.310;2022-09-30T04:14:35;16.63;;;9.05;;
46084;SDS011;31823;47.032;8.310;2022-09-30T04:17:01;19.88;;;10.23;;
46084;SDS011;31823;47.032;8.310;2022-09-30T04:19:28;27.73;;;10.98;;
46084;SDS011;31823;47.032;8.310;2022-09-30T04:21:54;17.55;;;8.60;;
46084;SDS011;31823;47.032;8.310;2022-09-30T04:24:21;18.75;;;9.52;;
46084;SDS011;31823;47.032;8.310;2022-09-30T04:26:47;19.98;;;9.60;;
46084;SDS011;31823;47.032;8.310;2022-09-30T04:29:13;18.42;;;10.00;;
46084;SDS011;31823;47.032;8.310;2022-09-30T04:31:39;20.00;;;9.52;;
46084;SDS011;31823;47.032;8.310;2022-09-30T04:34:05;20.63;;;11.18;;
46084;SDS011;31823;47.032;8.310;2022-09-30T04:36:31;20.02;;;10.75;;
46084;SDS011;31823;47.032;8.310;2022-09-30T04:38:56;21.77;;;10.25;;
46084;SDS011;31823;47.032;8.310;2022-09-30T04:41:22;19.42;;;9.40;;
46084;SDS011;31823;47.032;8.310;2022-09-30T04:43:49;25.67;;;8.98;;
46084;SDS011;31823;47.032;8.310;2022-09-30T04:46:15;20.98;;;9.77;;
46084;SDS011;31823;47.032;8.310;2022-09-30T04:48:42;18.63;;;8.88;;
46084;SDS011;31823;47.032;8.310;2022-09-30T04:51:19;19.55;;;9.25;;
46084;SDS011;31823;47.032;8.310;2022-09-30T04:56:12;23.45;;;10.07;;
46084;SDS011;31823;47.032;8.310;2022-09-30T04:58:38;22.42;;;11.35;;
46084;SDS011;31823;47.032;8.310;2022-09-30T05:01:13;27.10;;;12.57;;
46084;SDS011;31823;47.032;8.310;2022-09-30T05:03:40;26.67;;;12.13;;
46084;SDS011;31823;47.032;8.310;2022-09-30T05:06:07;23.77;;;12.23;;
46084;SDS011;31823;47.032;8.310;2022-09-30T05:08:33;28.40;;;12.57;;
46084;SDS011;31823;47.032;8.310;2022-09-30T05:11:00;26.48;;;11.65;;
46084;SDS011;31823;47.032;8.310;2022-09-30T05:13:35;25.35;;;11.73;;
46084;SDS011;31823;47.032;8.310;2022-09-30T05:16:02;27.35;;;11.82;;
46084;SDS011;31823;47.032;8.310;2022-09-30T05:18:28;26.70;;;12.05;;
46084;SDS011;31823;47.032;8.310;2022-09-30T05:20:55;29.75;;;12.63;;
46084;SDS011;31823;47.032;8.310;2022-09-30T05:23:22;31.17;;;12.38;;
46084;SDS011;31823;47.032;8.310;2022-09-30T05:25:50;31.20;;;13.68;;
46084;SDS011;31823;47.032;8.310;2022-09-30T05:28:16;34.17;;;13.23;;
46084;SDS011;31823;47.032;8.310;2022-09-30T05:30:42;30.45;;;12.00;;
46084;SDS011;31823;47.032;8.310;2022-09-30T05:33:09;32.75;;;13.30;;
46084;SDS011;31823;47.032;8.310;2022-09-30T05:35:38;25.65;;;11.60;;
46084;SDS011;31823;47.032;8.310;2022-09-30T05:38:05;22.70;;;10.52;;
46084;SDS011;31823;47.032;8.310;2022-09-30T05:40:31;27.15;;;11.85;;
46084;SDS011;31823;47.032;8.310;2022-09-30T05:42:57;26.83;;;12.55;;
46084;SDS011;31823;47.032;8.310;2022-09-30T05:45:23;28.48;;;12.93;;
46084;SDS011;31823;47.032;8.310;2022-09-30T05:47:53;25.77;;;11.30;;
46084;SDS011;31823;47.032;8.310;2022-09-30T05:50:20;22.35;;;10.65;;
46084;SDS011;31823;47.032;8.310;2022-09-30T05:52:47;20.42;;;9.38;;
46084;SDS011;31823;47.032;8.310;2022-09-30T05:55:13;20.08;;;8.65;;
46084;SDS011;31823;47.032;8.310;2022-09-30T05:57:43;19.27;;;10.20;;
46084;SDS011;31823;47.032;8.310;2022-09-30T06:00:12;23.10;;;10.23;;
46084;SDS011;31823;47.032;8.310;2022-09-30T06:02:38;17.67;;;8.98;;
46084;SDS011;31823;47.032;8.310;2022-09-30T06:05:05;18.25;;;9.50;;
46084;SDS011;31823;47.032;8.310;2022-09-30T06:07:32;22.08;;;10.18;;
46084;SDS011;31823;47.032;8.310;2022-09-30T06:09:59;19.67;;;9.57;;
46084;SDS011;31823;47.032;8.310;2022-09-30T06:12:25;25.25;;;10.93;;
46084;SDS011;31823;47.032;8.310;2022-09-30T06:14:53;27.17;;;12.25;;
46084;SDS011;31823;47.032;8.310;2022-09-30T06:17:19;22.67;;;10.75;;
46084;SDS011;31823;47.032;8.310;2022-09-30T06:19:46;21.58;;;10.43;;
46084;SDS011;31823;47.032;8.310;2022-09-30T06:22:12;21.20;;;10.00;;
46084;SDS011;31823;47.032;8.310;2022-09-30T06:24:37;24.95;;;11.50;;
46084;SDS011;31823;47.032;8.310;2022-09-30T06:27:03;24.20;;;11.55;;
46084;SDS011;31823;47.032;8.310;2022-09-30T06:29:29;27.63;;;12.95;;
46084;SDS011;31823;47.032;8.310;2022-09-30T06:31:55;28.42;;;14.52;;
46084;SDS011;31823;47.032;8.310;2022-09-30T06:34:21;30.40;;;12.90;;
46084;SDS011;31823;47.032;8.310;2022-09-30T06:36:46;29.55;;;14.40;;
46084;SDS011;31823;47.032;8.310;2022-09-30T06:39:12;32.85;;;16.13;;
46084;SDS011;31823;47.032;8.310;2022-09-30T06:41:37;37.40;;;15.85;;
46084;SDS011;31823;47.032;8.310;2022-09-30T06:44:06;35.40;;;16.48;;
46084;SDS011;31823;47.032;8.310;2022-09-30T06:46:32;35.40;;;16.50;;
46084;SDS011;31823;47.032;8.310;2022-09-30T06:48:58;38.60;;;17.10;;
46084;SDS011;31823;47.032;8.310;2022-09-30T06:51:24;37.47;;;16.75;;
46084;SDS011;31823;47.032;8.310;2022-09-30T06:53:51;38.97;;;17.65;;
46084;SDS011;31823;47.032;8.310;2022-09-30T06:56:18;39.78;;;18.25;;
46084;SDS011;31823;47.032;8.310;2022-09-30T06:58:44;44.00;;;18.75;;
46084;SDS011;31823;47.032;8.310;2022-09-30T07:01:11;46.08;;;19.55;;
46084;SDS011;31823;47.032;8.310;2022-09-30T07:03:40;44.78;;;18.25;;
46084;SDS011;31823;47.032;8.310;2022-09-30T07:06:08;35.22;;;17.13;;
46084;SDS011;31823;47.032;8.310;2022-09-30T07:08:35;37.10;;;16.80;;
46084;SDS011;31823;47.032;8.310;2022-09-30T07:11:03;35.95;;;16.27;;
46084;SDS011;31823;47.032;8.310;2022-09-30T07:13:38;35.22;;;17.25;;
46084;SDS011;31823;47.032;8.310;2022-09-30T07:16:07;36.28;;;17.65;;
46084;SDS011;31823;47.032;8.310;2022-09-30T07:18:33;37.97;;;18.85;;
46084;SDS011;31823;47.032;8.310;2022-09-30T07:20:58;35.42;;;17.65;;
46084;SDS011;31823;47.032;8.310;2022-09-30T07:23:24;36.47;;;17.67;;
46084;SDS011;31823;47.032;8.310;2022-09-30T07:26:08;35.00;;;17.55;;
46084;SDS011;31823;47.032;8.310;2022-09-30T07:28:34;30.60;;;16.48;;
46084;SDS011;31823;47.032;8.310;2022-09-30T07:31:22;33.03;;;17.42;;
46084;SDS011;31823;47.032;8.310;2022-09-30T07:36:16;30.55;;;16.15;;
46084;SDS011;31823;47.032;8.310;2022-09-30T07:38:45;28.95;;;16.15;;
46084;SDS011;31823;47.032;8.310;2022-09-30T07:41:16;26.70;;;14.93;;
46084;SDS011;31823;47.032;8.310;2022-09-30T07:43:46;29.25;;;15.80;;
46084;SDS011;31823;47.032;8.310;2022-09-30T07:46:13;28.00;;;16.13;;
46084;SDS011;31823;47.032;8.310;2022-09-30T07:48:42;26.80;;;15.38;;
46084;SDS011;31823;47.032;8.310;2022-09-30T07:51:11;26.85;;;15.70;;
46084;SDS011;31823;47.032;8.310;2022-09-30T07:53:40;27.08;;;15.77;;
46084;SDS011;31823;47.032;8.310;2022-09-30T07:56:07;28.02;;;14.80;;
46084;SDS011;31823;47.032;8.310;2022-09-30T07:58:34;27.77;;;15.35;;
46084;SDS011;31823;47.032;8.310;2022-09-30T08:01:00;28.58;;;16.02;;
46084;SDS011;31823;47.032;8.310;2022-09-30T08:03:26;28.10;;;16.02;;
46084;SDS011;31823;47.032;8.310;2022-09-30T08:05:52;24.98;;;14.68;;
46084;SDS011;31823;47.032;8.310;2022-09-30T08:08:18;31.33;;;15.52;;
46084;SDS011;31823;47.032;8.310;2022-09-30T08:10:44;28.00;;;15.40;;
46084;SDS011;31823;47.032;8.310;2022-09-30T08:13:09;25.48;;;14.35;;
46084;SDS011;31823;47.032;8.310;2022-09-30T08:15:40;33.10;;;15.65;;
46084;SDS011;31823;47.032;8.310;2022-09-30T08:18:06;24.95;;;14.55;;
46084;SDS011;31823;47.032;8.310;2022-09-30T08:20:32;24.98;;;14.85;;
46084;SDS011;31823;47.032;8.310;2022-09-30T08:22:57;24.85;;;14.88;;
46084;SDS011;31823;47.032;8.310;2022-09-30T08:25:23;25.65;;;15.55;;
46084;SDS011;31823;47.032;8.310;2022-09-30T08:27:51;25.10;;;14.30;;
46084;SDS011;31823;47.032;8.310;2022-09-30T08:30:17;25.85;;;14.77;;
46084;SDS011;31823;47.032;8.310;2022-09-30T08:32:42;24.88;;;14.68;;
46084;SDS011;31823;47.032;8.310;2022-09-30T08:35:08;26.08;;;14.60;;
46084;SDS011;31823;47.032;8.310;2022-09-30T08:37:34;22.13;;;13.20;;
46084;SDS011;31823;47.032;8.310;2022-09-30T08:40:02;23.98;;;13.85;;
46084;SDS011;31823;47.032;8.310;2022-09-30T08:51:32;24.42;;;14.25;;
46084;SDS011;31823;47.032;8.310;2022-09-30T08:54:00;24.70;;;14.48;;
46084;SDS011;31823;47.032;8.310;2022-09-30T08:56:30;25.83;;;14.57;;
46084;SDS011;31823;47.032;8.310;2022-09-30T08:59:06;21.83;;;13.55;;
46084;SDS011;31823;47.032;8.310;2022-09-30T09:02:08;22.58;;;13.27;;
46084;SDS011;31823;47.032;8.310;2022-09-30T09:04:51;23.05;;;13.75;;
46084;SDS011;31823;47.032;8.310;2022-09-30T09:07:26;20.00;;;12.73;;
46084;SDS011;31823;47.032;8.310;2022-09-30T09:13:08;20.25;;;12.73;;
46084;SDS011;31823;47.032;8.310;2022-09-30T09:20:57;14.38;;;10.18;;
46084;SDS011;31823;47.032;8.310;2022-09-30T09:23:24;16.75;;;11.18;;
46084;SDS011;31823;47.032;8.310;2022-09-30T09:25:52;18.45;;;11.27;;
46084;SDS011;31823;47.032;8.310;2022-09-30T09:28:24;18.45;;;11.45;;
46084;SDS011;31823;47.032;8.310;2022-09-30T09:30:57;16.92;;;11.38;;
46084;SDS011;31823;47.032;8.310;2022-09-30T09:33:26;18.73;;;10.85;;
46084;SDS011;31823;47.032;8.310;2022-09-30T09:38:39;15.88;;;9.52;;
46084;SDS011;31823;47.032;8.310;2022-09-30T09:51:47;13.07;;;8.60;;
46084;SDS011;31823;47.032;8.310;2022-09-30T09:54:22;11.20;;;8.45;;
46084;SDS011;31823;47.032;8.310;2022-09-30T09:56:52;15.25;;;9.15;;
46084;SDS011;31823;47.032;8.310;2022-09-30T09:59:19;14.35;;;9.75;;
46084;SDS011;31823;47.032;8.310;2022-09-30T10:01:54;16.80;;;10.60;;
46084;SDS011;31823;47.032;8.310;2022-09-30T10:06:49;15.48;;;10.45;;
46084;SDS011;31823;47.032;8.310;2022-09-30T10:12:16;17.20;;;10.98;;
46084;SDS011;31823;47.032;8.310;2022-09-30T10:15:19;18.57;;;11.07;;
46084;SDS011;31823;47.032;8.310;2022-09-30T10:17:34;15.77;;;10.73;;
46084;SDS011;31823;47.032;8.310;2022-09-30T10:20:16;16.60;;;9.90;;
46084;SDS011;31823;47.032;8.310;2022-09-30T10:22:47;16.90;;;9.93;;
46084;SDS011;31823;47.032;8.310;2022-09-30T10:27:46;18.17;;;10.70;;
46084;SDS011;31823;47.032;8.310;2022-09-30T10:30:28;13.95;;;9.15;;
46084;SDS011;31823;47.032;8.310;2022-09-30T10:33:00;15.73;;;10.02;;
46084;SDS011;31823;47.032;8.310;2022-09-30T10:35:30;13.93;;;9.63;;
46084;SDS011;31823;47.032;8.310;2022-09-30T10:37:57;12.07;;;8.65;;
46084;SDS011;31823;47.032;8.310;2022-09-30T10:40:26;14.05;;;9.38;;
46084;SDS011;31823;47.032;8.310;2022-09-30T10:42:57;12.82;;;8.68;;
46084;SDS011;31823;47.032;8.310;2022-09-30T10:45:31;11.50;;;8.13;;
46084;SDS011;31823;47.032;8.310;2022-09-30T10:48:05;12.88;;;9.07;;
46084;SDS011;31823;47.032;8.310;2022-09-30T10:50:38;13.55;;;9.02;;
46084;SDS011;31823;47.032;8.310;2022-09-30T10:53:10;15.45;;;9.93;;
46084;SDS011;31823;47.032;8.310;2022-09-30T10:55:43;14.30;;;9.40;;
46084;SDS011;31823;47.032;8.310;2022-09-30T10:58:29;14.20;;;9.05;;
46084;SDS011;31823;47.032;8.310;2022-09-30T11:06:25;14.55;;;9.77;;
46084;SDS011;31823;47.032;8.310;2022-09-30T11:11:49;13.13;;;8.18;;
46084;SDS011;31823;47.032;8.310;2022-09-30T11:19:54;14.30;;;8.40;;
46084;SDS011;31823;47.032;8.310;2022-09-30T11:44:42;14.20;;;9.15;;
46084;SDS011;31823;47.032;8.310;2022-09-30T11:52:46;14.68;;;9.43;;
46084;SDS011;31823;47.032;8.310;2022-09-30T11:55:42;15.00;;;9.20;;
46084;SDS011;31823;47.032;8.310;2022-09-30T11:58:28;13.63;;;8.85;;
46084;SDS011;31823;47.032;8.310;2022-09-30T12:01:28;12.93;;;9.48;;
46084;SDS011;31823;47.032;8.310;2022-09-30T12:06:29;13.60;;;9.55;;
46084;SDS011;31823;47.032;8.310;2022-09-30T12:09:04;14.95;;;9.52;;
46084;SDS011;31823;47.032;8.310;2022-09-30T12:12:08;15.50;;;9.02;;
46084;SDS011;31823;47.032;8.310;2022-09-30T12:20:36;16.70;;;10.55;;
46084;SDS011;31823;47.032;8.310;2022-09-30T12:25:55;16.45;;;10.98;;
46084;SDS011;31823;47.032;8.310;2022-09-30T12:36:56;18.20;;;9.18;;
46084;SDS011;31823;47.032;8.310;2022-09-30T12:49:55;8.75;;;6.97;;
46084;SDS011;31823;47.032;8.310;2022-09-30T12:52:23;10.27;;;7.90;;
46084;SDS011;31823;47.032;8.310;2022-09-30T12:54:51;12.85;;;8.63;;
46084;SDS011;31823;47.032;8.310;2022-09-30T12:57:26;12.27;;;7.20;;
46084;SDS011;31823;47.032;8.310;2022-09-30T12:59:55;8.85;;;7.28;;
46084;SDS011;31823;47.032;8.310;2022-09-30T13:02:29;10.90;;;7.45;;
46084;SDS011;31823;47.032;8.310;2022-09-30T13:15:49;8.80;;;6.07;;
46084;SDS011;31823;47.032;8.310;2022-09-30T13:23:38;6.38;;;5.13;;
46084;SDS011;31823;47.032;8.310;2022-09-30T13:31:24;6.53;;;5.22;;
46084;SDS011;31823;47.032;8.310;2022-09-30T13:36:26;9.45;;;6.07;;
46084;SDS011;31823;47.032;8.310;2022-09-30T13:39:06;7.32;;;5.00;;
46084;SDS011;31823;47.032;8.310;2022-09-30T13:41:33;8.00;;;5.25;;
46084;SDS011;31823;47.032;8.310;2022-09-30T13:44:08;7.38;;;5.60;;
46084;SDS011;31823;47.032;8.310;2022-09-30T13:46:42;7.88;;;5.15;;
46084;SDS011;31823;47.032;8.310;2022-09-30T13:51:56;6.20;;;4.85;;
46084;SDS011;31823;47.032;8.310;2022-09-30T13:54:32;8.40;;;5.45;;
46084;SDS011;31823;47.032;8.310;2022-09-30T13:57:04;7.53;;;5.10;;
46084;SDS011;31823;47.032;8.310;2022-09-30T14:07:54;9.85;;;4.60;;
46084;SDS011;31823;47.032;8.310;2022-09-30T14:10:37;8.68;;;4.63;;
46084;SDS011;31823;47.032;8.310;2022-09-30T14:13:35;6.22;;;4.00;;
46084;SDS011;31823;47.032;8.310;2022-09-30T14:22:22;6.93;;;5.38;;
46084;SDS011;31823;47.032;8.310;2022-09-30T14:24:51;6.72;;;5.13;;
46084;SDS011;31823;47.032;8.310;2022-09-30T14:30:24;13.43;;;6.43;;
46084;SDS011;31823;47.032;8.310;2022-09-30T14:35:21;5.97;;;4.00;;
46084;SDS011;31823;47.032;8.310;2022-09-30T14:40:24;6.30;;;4.82;;
46084;SDS011;31823;47.032;8.310;2022-09-30T14:42:52;9.40;;;6.38;;
46084;SDS011;31823;47.032;8.310;2022-09-30T14:45:20;8.95;;;4.28;;
46084;SDS011;31823;47.032;8.310;2022-09-30T14:47:50;5.53;;;4.35;;
46084;SDS011;31823;47.032;8.310;2022-09-30T14:50:27;8.10;;;5.30;;
46084;SDS011;31823;47.032;8.310;2022-09-30T14:52:58;9.32;;;6.70;;
46084;SDS011;31823;47.032;8.310;2022-09-30T14:55:31;7.18;;;5.72;;
46084;SDS011;31823;47.032;8.310;2022-09-30T14:58:20;7.47;;;5.25;;
46084;SDS011;31823;47.032;8.310;2022-09-30T15:03:33;8.25;;;6.15;;
46084;SDS011;31823;47.032;8.310;2022-09-30T15:06:00;8.15;;;6.03;;
46084;SDS011;31823;47.032;8.310;2022-09-30T15:08:26;7.78;;;4.47;;
46084;SDS011;31823;47.032;8.310;2022-09-30T15:10:53;7.93;;;6.07;;
46084;SDS011;31823;47.032;8.310;2022-09-30T15:13:20;5.38;;;4.53;;
46084;SDS011;31823;47.032;8.310;2022-09-30T15:15:48;7.45;;;4.78;;
46084;SDS011;31823;47.032;8.310;2022-09-30T15:20:53;6.45;;;4.90;;
46084;SDS011;31823;47.032;8.310;2022-09-30T15:23:24;9.23;;;6.75;;
46084;SDS011;31823;47.032;8.310;2022-09-30T15:25:52;7.43;;;5.07;;
46084;SDS011;31823;47.032;8.310;2022-09-30T15:28:19;9.35;;;6.05;;
46084;SDS011;31823;47.032;8.310;2022-09-30T15:30:45;7.63;;;5.90;;
46084;SDS011;31823;47.032;8.310;2022-09-30T15:33:12;8.52;;;5.20;;
46084;SDS011;31823;47.032;8.310;2022-09-30T15:35:44;8.70;;;5.50;;
46084;SDS011;31823;47.032;8.310;2022-09-30T15:40:44;8.07;;;6.13;;
46084;SDS011;31823;47.032;8.310;2022-09-30T15:43:15;5.55;;;4.43;;
46084;SDS011;31823;47.032;8.310;2022-09-30T15:45:57;6.30;;;;;
46084;SDS011;31823;47.032;8.310;2022-09-30T15:48:40;7.28;;;4.63;;
46084;SDS011;31823;47.032;8.310;2022-09-30T15:54:34;10.60;;;5.30;;
46084;SDS011;31823;47.032;8.310;2022-09-30T15:57:02;7.60;;;5.53;;
46084;SDS011;31823;47.032;8.310;2022-09-30T16:00:02;8.32;;;5.55;;
46084;SDS011;31823;47.032;8.310;2022-09-30T16:02:32;8.93;;;5.30;;
46084;SDS011;31823;47.032;8.310;2022-09-30T16:04:58;9.30;;;5.82;;
46084;SDS011;31823;47.032;8.310;2022-09-30T16:07:29;11.70;;;5.65;;
46084;SDS011;31823;47.032;8.310;2022-09-30T16:09:56;12.48;;;5.75;;
46084;SDS011;31823;47.032;8.310;2022-09-30T16:12:24;7.95;;;5.82;;
46084;SDS011;31823;47.032;8.310;2022-09-30T16:15:08;9.43;;;5.53;;
46084;SDS011;31823;47.032;8.310;2022-09-30T16:17:38;8.15;;;5.78;;
46084;SDS011;31823;47.032;8.310;2022-09-30T16:25:12;10.55;;;6.22;;
46084;SDS011;31823;47.032;8.310;2022-09-30T16:27:46;8.50;;;5.68;;
46084;SDS011;31823;47.032;8.310;2022-09-30T16:30:13;7.72;;;5.07;;
46084;SDS011;31823;47.032;8.310;2022-09-30T16:32:41;11.40;;;6.10;;
46084;SDS011;31823;47.032;8.310;2022-09-30T16:35:14;8.68;;;5.72;;
46084;SDS011;31823;47.032;8.310;2022-09-30T16:37:42;7.38;;;5.95;;
46084;SDS011;31823;47.032;8.310;2022-09-30T16:40:14;8.95;;;5.97;;
46084;SDS011;31823;47.032;8.310;2022-09-30T16:42:47;9.23;;;6.00;;
46084;SDS011;31823;47.032;8.310;2022-09-30T16:45:13;7.68;;;5.20;;
46084;SDS011;31823;47.032;8.310;2022-09-30T16:47:40;8.00;;;5.70;;
46084;SDS011;31823;47.032;8.310;2022-09-30T16:50:14;9.98;;;6.43;;
46084;SDS011;31823;47.032;8.310;2022-09-30T16:52:41;8.15;;;5.95;;
46084;SDS011;31823;47.032;8.310;2022-09-30T16:55:06;8.43;;;5.47;;
46084;SDS011;31823;47.032;8.310;2022-09-30T16:57:32;9.90;;;6.53;;
46084;SDS011;31823;47.032;8.310;2022-09-30T16:59:58;10.85;;;5.90;;
46084;SDS011;31823;47.032;8.310;2022-09-30T17:02:23;12.18;;;6.28;;
46084;SDS011;31823;47.032;8.310;2022-09-30T17:04:50;9.20;;;6.05;;
46084;SDS011;31823;47.032;8.310;2022-09-30T17:07:15;8.13;;;5.95;;
46084;SDS011;31823;47.032;8.310;2022-09-30T17:09:41;9.60;;;6.47;;
46084;SDS011;31823;47.032;8.310;2022-09-30T17:12:07;7.68;;;5.90;;
46084;SDS011;31823;47.032;8.310;2022-09-30T17:14:34;13.18;;;7.57;;
46084;SDS011;31823;47.032;8.310;2022-09-30T17:17:00;7.57;;;6.22;;
46084;SDS011;31823;47.032;8.310;2022-09-30T17:19:26;8.23;;;6.45;;
46084;SDS011;31823;47.032;8.310;2022-09-30T17:21:54;11.70;;;6.65;;
46084;SDS011;31823;47.032;8.310;2022-09-30T17:24:19;7.60;;;6.10;;
46084;SDS011;31823;47.032;8.310;2022-09-30T17:26:45;10.38;;;7.80;;
46084;SDS011;31823;47.032;8.310;2022-09-30T17:29:11;9.77;;;6.97;;
46084;SDS011;31823;47.032;8.310;2022-09-30T17:31:37;8.50;;;6.85;;
46084;SDS011;31823;47.032;8.310;2022-09-30T17:34:05;7.93;;;6.25;;
46084;SDS011;31823;47.032;8.310;2022-09-30T17:36:34;9.93;;;7.30;;
46084;SDS011;31823;47.032;8.310;2022-09-30T17:39:00;11.88;;;6.68;;
46084;SDS011;31823;47.032;8.310;2022-09-30T17:41:26;10.40;;;7.38;;
46084;SDS011;31823;47.032;8.310;2022-09-30T17:44:10;11.23;;;7.10;;
46084;SDS011;31823;47.032;8.310;2022-09-30T17:46:40;13.75;;;8.20;;
46084;SDS011;31823;47.032;8.310;2022-09-30T17:49:08;11.15;;;7.28;;
46084;SDS011;31823;47.032;8.310;2022-09-30T17:51:35;8.75;;;6.60;;
46084;SDS011;31823;47.032;8.310;2022-09-30T17:54:03;8.43;;;6.97;;
46084;SDS011;31823;47.032;8.310;2022-09-30T17:56:30;13.38;;;6.85;;
46084;SDS011;31823;47.032;8.310;2022-09-30T17:58:56;7.78;;;6.03;;
46084;SDS011;31823;47.032;8.310;2022-09-30T18:01:22;12.85;;;7.05;;
46084;SDS011;31823;47.032;8.310;2022-09-30T18:03:48;9.13;;;6.85;;
46084;SDS011;31823;47.032;8.310;2022-09-30T18:06:17;11.07;;;6.28;;
46084;SDS011;31823;47.032;8.310;2022-09-30T18:08:48;13.02;;;6.35;;
46084;SDS011;31823;47.032;8.310;2022-09-30T18:11:21;10.27;;;6.15;;
46084;SDS011;31823;47.032;8.310;2022-09-30T18:13:55;10.00;;;6.05;;
46084;SDS011;31823;47.032;8.310;2022-09-30T18:16:25;12.88;;;6.88;;
46084;SDS011;31823;47.032;8.310;2022-09-30T18:18:54;9.13;;;6.22;;
46084;SDS011;31823;47.032;8.310;2022-09-30T18:21:22;10.10;;;6.10;;
46084;SDS011;31823;47.032;8.310;2022-09-30T18:23:49;11.75;;;6.95;;
46084;SDS011;31823;47.032;8.310;2022-09-30T18:26:16;8.90;;;5.93;;
46084;SDS011;31823;47.032;8.310;2022-09-30T18:28:42;9.15;;;6.50;;
46084;SDS011;31823;47.032;8.310;2022-09-30T18:31:08;9.85;;;6.22;;
46084;SDS011;31823;47.032;8.310;2022-09-30T18:33:34;8.20;;;6.15;;
46084;SDS011;31823;47.032;8.310;2022-09-30T18:36:00;10.10;;;6.40;;
46084;SDS011;31823;47.032;8.310;2022-09-30T18:38:27;9.88;;;6.22;;
46084;SDS011;31823;47.032;8.310;2022-09-30T18:40:52;9.57;;;5.85;;
46084;SDS011;31823;47.032;8.310;2022-09-30T18:43:18;7.10;;;5.80;;
46084;SDS011;31823;47.032;8.310;2022-09-30T18:45:50;9.75;;;6.78;;
46084;SDS011;31823;47.032;8.310;2022-09-30T18:48:21;7.72;;;5.70;;
46084;SDS011;31823;47.032;8.310;2022-09-30T18:50:47;10.02;;;6.45;;
46084;SDS011;31823;47.032;8.310;2022-09-30T18:53:15;10.00;;;5.80;;
46084;SDS011;31823;47.032;8.310;2022-09-30T18:55:44;9.82;;;6.47;;
46084;SDS011;31823;47.032;8.310;2022-09-30T18:58:10;7.10;;;5.40;;
46084;SDS011;31823;47.032;8.310;2022-09-30T19:00:35;10.18;;;5.90;;
46084;SDS011;31823;47.032;8.310;2022-09-30T19:03:01;7.35;;;5.63;;
46084;SDS011;31823;47.032;8.310;2022-09-30T19:05:27;9.82;;;6.38;;
46084;SDS011;31823;47.032;8.310;2022-09-30T19:07:53;8.13;;;5.95;;